sensor_id;sensor_type;location;lat;lon;timestamp;temperature;humidity
58517;DHT22;44308;50.810;0.284;2022-10-16T00:00:38;15.10;99.90
58517;DHT22;44308;50.810;0.284;2022-10-16T00:03:04;15.20;99.90
58517;DHT22;44308;50.810;0.284;2022-10-16T00:05:30;15.20;99.90
58517;DHT22;44308;50.810;0.284;2022-10-16T00:07:56;15.30;99.90
58517;DHT22;44308;50.810;0.284;2022-10-16T00:10:22;15.10;99.90
58517;DHT22;44308;50.810;0.284;2022-10-16T00:12:48;15.00;99.90
58517;DHT22;44308;50.810;0.284;2022-10-16T00:15:16;15.00;99.90
58517;DHT22;44308;50.810;0.284;2022-10-16T00:17:42;14.90;99.90
58517;DHT22;44308;50.810;0.284;2022-10-16T00:20:07;14.70;99.90
58517;DHT22;44308;50.810;0.284;2022-10-16T00:22:33;14.70;99.90
58517;DHT22;44308;50.810;0.284;2022-10-16T00:24:59;14.80;99.90
58517;DHT22;44308;50.810;0.284;2022-10-16T00:27:25;14.80;99.90
58517;DHT22;44308;50.810;0.284;2022-10-16T00:29:51;14.70;99.90
58517;DHT22;44308;50.810;0.284;2022-10-16T00:32:18;14.80;99.90
58517;DHT22;44308;50.810;0.284;2022-10-16T00:34:46;14.90;99.90
58517;DHT22;44308;50.810;0.284;2022-10-16T00:37:13;15.00;99.90
58517;DHT22;44308;50.810;0.284;2022-10-16T00:39:38;15.00;99.90
58517;DHT22;44308;50.810;0.284;2022-10-16T00:42:04;15.00;99.90
58517;DHT22;44308;50.810;0.284;2022-10-16T00:48:18;15.10;99.90
58517;DHT22;44308;50.810;0.284;2022-10-16T00:50:44;15.20;99.90
58517;DHT22;44308;50.810;0.284;2022-10-16T00:53:10;15.20;99.90
58517;DHT22;44308;50.810;0.284;2022-10-16T00:59:03;15.20;99.90
58517;DHT22;44308;50.810;0.284;2022-10-16T01:01:30;15.20;99.90
58517;DHT22;44308;50.810;0.284;2022-10-16T01:03:56;15.20;99.90
58517;DHT22;44308;50.810;0.284;2022-10-16T01:12:13;15.00;99.90
58517;DHT22;44308;50.810;0.284;2022-10-16T01:17:41;14.70;99.90
58517;DHT22;44308;50.810;0.284;2022-10-16T01:22:59;14.30;99.90
58517;DHT22;44308;50.810;0.284;2022-10-16T01:31:11;14.30;99.90
58517;DHT22;44308;50.810;0.284;2022-10-16T01:33:42;14.40;99.90
58517;DHT22;44308;50.810;0.284;2022-10-16T01:36:21;14.30;99.90
58517;DHT22;44308;50.810;0.284;2022-10-16T01:38:49;14.40;99.90
58517;DHT22;44308;50.810;0.284;2022-10-16T01:41:27;14.40;99.90
58517;DHT22;44308;50.810;0.284;2022-10-16T01:44:08;14.50;99.90
58517;DHT22;44308;50.810;0.284;2022-10-16T01:46:39;14.60;99.90
58517;DHT22;44308;50.810;0.284;2022-10-16T01:49:06;14.40;99.90
58517;DHT22;44308;50.810;0.284;2022-10-16T01:51:35;14.50;99.90
58517;DHT22;44308;50.810;0.284;2022-10-16T01:54:02;14.60;99.90
58517;DHT22;44308;50.810;0.284;2022-10-16T01:56:30;14.70;99.90
58517;DHT22;44308;50.810;0.284;2022-10-16T01:59:06;14.50;99.90
58517;DHT22;44308;50.810;0.284;2022-10-16T02:01:35;14.60;99.90
58517;DHT22;44308;50.810;0.284;2022-10-16T02:04:09;14.60;99.90
58517;DHT22;44308;50.810;0.284;2022-10-16T02:06:37;14.70;99.90
58517;DHT22;44308;50.810;0.284;2022-10-16T02:09:03;14.70;99.90
58517;DHT22;44308;50.810;0.284;2022-10-16T02:11:28;14.60;99.90
58517;DHT22;44308;50.810;0.284;2022-10-16T02:14:06;14.40;99.90
58517;DHT22;44308;50.810;0.284;2022-10-16T02:16:46;14.60;99.90
58517;DHT22;44308;50.810;0.284;2022-10-16T02:19:16;14.40;99.90
58517;DHT22;44308;50.810;0.284;2022-10-16T02:21:58;14.30;99.90
58517;DHT22;44308;50.810;0.284;2022-10-16T02:24:58;14.30;99.90
58517;DHT22;44308;50.810;0.284;2022-10-16T02:27:34;14.30;99.90
58517;DHT22;44308;50.810;0.284;2022-10-16T02:30:15;14.40;99.90
58517;DHT22;44308;50.810;0.284;2022-10-16T02:32:44;14.50;99.90
58517;DHT22;44308;50.810;0.284;2022-10-16T02:35:17;14.40;99.90
58517;DHT22;44308;50.810;0.284;2022-10-16T02:37:43;14.50;99.90
58517;DHT22;44308;50.810;0.284;2022-10-16T02:40:10;14.50;99.90
58517;DHT22;44308;50.810;0.284;2022-10-16T02:42:38;14.40;99.90
58517;DHT22;44308;50.810;0.284;2022-10-16T02:45:06;14.50;99.90
58517;DHT22;44308;50.810;0.284;2022-10-16T02:47:32;14.60;99.90
58517;DHT22;44308;50.810;0.284;2022-10-16T02:49:59;14.50;99.90
58517;DHT22;44308;50.810;0.284;2022-10-16T02:52:25;14.50;99.90
58517;DHT22;44308;50.810;0.284;2022-10-16T02:55:10;14.70;99.90
58517;DHT22;44308;50.810;0.284;2022-10-16T02:57:35;14.60;99.90
58517;DHT22;44308;50.810;0.284;2022-10-16T03:00:04;14.80;99.90
58517;DHT22;44308;50.810;0.284;2022-10-16T03:02:30;14.70;99.90
58517;DHT22;44308;50.810;0.284;2022-10-16T03:04:57;14.60;99.90
58517;DHT22;44308;50.810;0.284;2022-10-16T03:07:23;14.70;99.90
58517;DHT22;44308;50.810;0.284;2022-10-16T03:09:48;14.50;99.90
58517;DHT22;44308;50.810;0.284;2022-10-16T03:12:14;14.50;99.90
58517;DHT22;44308;50.810;0.284;2022-10-16T03:14:40;14.30;99.90
58517;DHT22;44308;50.810;0.284;2022-10-16T03:17:06;14.20;99.90
58517;DHT22;44308;50.810;0.284;2022-10-16T03:19:31;14.20;99.90
58517;DHT22;44308;50.810;0.284;2022-10-16T03:21:57;14.10;99.90
58517;DHT22;44308;50.810;0.284;2022-10-16T03:24:24;14.30;99.90
58517;DHT22;44308;50.810;0.284;2022-10-16T03:26:50;14.10;99.90
58517;DHT22;44308;50.810;0.284;2022-10-16T03:29:15;14.00;99.90
58517;DHT22;44308;50.810;0.284;2022-10-16T03:31:41;13.70;99.90
58517;DHT22;44308;50.810;0.284;2022-10-16T03:34:07;13.40;99.90
58517;DHT22;44308;50.810;0.284;2022-10-16T03:36:35;13.10;99.90
58517;DHT22;44308;50.810;0.284;2022-10-16T03:39:00;13.00;99.90
58517;DHT22;44308;50.810;0.284;2022-10-16T03:41:26;12.90;99.90
58517;DHT22;44308;50.810;0.284;2022-10-16T03:43:52;12.90;99.90
58517;DHT22;44308;50.810;0.284;2022-10-16T03:46:18;12.80;99.90
58517;DHT22;44308;50.810;0.284;2022-10-16T03:48:43;12.70;99.90
58517;DHT22;44308;50.810;0.284;2022-10-16T03:51:09;12.60;99.90
58517;DHT22;44308;50.810;0.284;2022-10-16T03:53:35;12.50;99.90
58517;DHT22;44308;50.810;0.284;2022-10-16T03:56:00;12.60;99.90
58517;DHT22;44308;50.810;0.284;2022-10-16T03:58:26;12.80;99.90
58517;DHT22;44308;50.810;0.284;2022-10-16T04:00:52;12.70;99.90
58517;DHT22;44308;50.810;0.284;2022-10-16T04:03:17;13.00;99.90
58517;DHT22;44308;50.810;0.284;2022-10-16T04:05:45;12.90;99.90
58517;DHT22;44308;50.810;0.284;2022-10-16T04:08:11;12.90;99.90
58517;DHT22;44308;50.810;0.284;2022-10-16T04:10:37;12.70;99.90
58517;DHT22;44308;50.810;0.284;2022-10-16T04:13:02;12.70;99.90
58517;DHT22;44308;50.810;0.284;2022-10-16T04:15:30;12.80;99.90
58517;DHT22;44308;50.810;0.284;2022-10-16T04:17:55;12.90;99.90
58517;DHT22;44308;50.810;0.284;2022-10-16T04:20:21;13.10;99.90
58517;DHT22;44308;50.810;0.284;2022-10-16T04:22:47;12.90;99.90
58517;DHT22;44308;50.810;0.284;2022-10-16T04:25:12;13.00;99.90
58517;DHT22;44308;50.810;0.284;2022-10-16T04:27:38;13.10;99.90
58517;DHT22;44308;50.810;0.284;2022-10-16T04:30:05;13.10;99.90
58517;DHT22;44308;50.810;0.284;2022-10-16T04:32:33;13.10;99.90
58517;DHT22;44308;50.810;0.284;2022-10-16T04:35:00;13.20;99.90
58517;DHT22;44308;50.810;0.284;2022-10-16T04:37:26;13.20;99.90
58517;DHT22;44308;50.810;0.284;2022-10-16T04:39:53;13.20;99.90
58517;DHT22;44308;50.810;0.284;2022-10-16T04:42:19;13.10;99.90
58517;DHT22;44308;50.810;0.284;2022-10-16T04:44:46;13.30;99.90
58517;DHT22;44308;50.810;0.284;2022-10-16T04:47:12;13.30;99.90
58517;DHT22;44308;50.810;0.284;2022-10-16T04:49:38;13.00;99.90
58517;DHT22;44308;50.810;0.284;2022-10-16T04:52:03;13.00;99.90
58517;DHT22;44308;50.810;0.284;2022-10-16T04:54:48;13.00;99.90
58517;DHT22;44308;50.810;0.284;2022-10-16T04:57:15;13.20;99.90
58517;DHT22;44308;50.810;0.284;2022-10-16T04:59:41;13.20;99.90
58517;DHT22;44308;50.810;0.284;2022-10-16T05:02:07;13.10;99.90
58517;DHT22;44308;50.810;0.284;2022-10-16T05:04:33;13.00;99.90
58517;DHT22;44308;50.810;0.284;2022-10-16T05:06:58;13.10;99.90
58517;DHT22;44308;50.810;0.284;2022-10-16T05:09:24;13.10;99.90
58517;DHT22;44308;50.810;0.284;2022-10-16T05:11:50;12.90;99.90
58517;DHT22;44308;50.810;0.284;2022-10-16T05:14:16;13.10;99.90
58517;DHT22;44308;50.810;0.284;2022-10-16T05:16:41;12.90;99.90
58517;DHT22;44308;50.810;0.284;2022-10-16T05:19:07;13.00;99.90
58517;DHT22;44308;50.810;0.284;2022-10-16T05:21:33;13.00;99.90
58517;DHT22;44308;50.810;0.284;2022-10-16T05:23:59;12.80;99.90
58517;DHT22;44308;50.810;0.284;2022-10-16T05:26:26;13.00;99.90
58517;DHT22;44308;50.810;0.284;2022-10-16T05:28:52;12.70;99.90
58517;DHT22;44308;50.810;0.284;2022-10-16T05:31:18;12.80;99.90
58517;DHT22;44308;50.810;0.284;2022-10-16T05:33:44;12.60;99.90
58517;DHT22;44308;50.810;0.284;2022-10-16T05:36:11;12.60;99.90
58517;DHT22;44308;50.810;0.284;2022-10-16T05:38:37;12.80;99.90
58517;DHT22;44308;50.810;0.284;2022-10-16T05:41:04;12.70;99.90
58517;DHT22;44308;50.810;0.284;2022-10-16T05:43:31;12.60;99.90
58517;DHT22;44308;50.810;0.284;2022-10-16T05:46:04;12.80;99.90
58517;DHT22;44308;50.810;0.284;2022-10-16T05:48:30;12.80;99.90
58517;DHT22;44308;50.810;0.284;2022-10-16T05:51:07;12.60;99.90
58517;DHT22;44308;50.810;0.284;2022-10-16T05:53:35;12.70;99.90
58517;DHT22;44308;50.810;0.284;2022-10-16T05:56:05;12.70;99.90
58517;DHT22;44308;50.810;0.284;2022-10-16T05:58:34;12.50;99.90
58517;DHT22;44308;50.810;0.284;2022-10-16T06:01:11;12.50;99.90
58517;DHT22;44308;50.810;0.284;2022-10-16T06:03:37;12.40;99.90
58517;DHT22;44308;50.810;0.284;2022-10-16T06:06:10;12.50;99.90
58517;DHT22;44308;50.810;0.284;2022-10-16T06:08:39;12.60;99.90
58517;DHT22;44308;50.810;0.284;2022-10-16T06:11:07;12.70;99.90
58517;DHT22;44308;50.810;0.284;2022-10-16T06:13:33;12.70;99.90
58517;DHT22;44308;50.810;0.284;2022-10-16T06:16:01;12.40;99.90
58517;DHT22;44308;50.810;0.284;2022-10-16T06:18:27;12.40;99.90
58517;DHT22;44308;50.810;0.284;2022-10-16T06:20:54;12.60;99.90
58517;DHT22;44308;50.810;0.284;2022-10-16T06:23:20;12.60;99.90
58517;DHT22;44308;50.810;0.284;2022-10-16T06:25:47;12.50;99.90
58517;DHT22;44308;50.810;0.284;2022-10-16T06:28:14;12.40;99.90
58517;DHT22;44308;50.810;0.284;2022-10-16T06:30:40;12.40;99.90
58517;DHT22;44308;50.810;0.284;2022-10-16T06:33:06;12.60;99.90
58517;DHT22;44308;50.810;0.284;2022-10-16T06:35:32;12.60;99.90
58517;DHT22;44308;50.810;0.284;2022-10-16T06:37:58;12.50;99.90
58517;DHT22;44308;50.810;0.284;2022-10-16T06:40:23;12.60;99.90
58517;DHT22;44308;50.810;0.284;2022-10-16T06:42:49;12.60;99.90
58517;DHT22;44308;50.810;0.284;2022-10-16T06:45:17;12.90;99.90
58517;DHT22;44308;50.810;0.284;2022-10-16T06:47:42;13.20;99.90
58517;DHT22;44308;50.810;0.284;2022-10-16T06:50:08;13.20;99.90
58517;DHT22;44308;50.810;0.284;2022-10-16T06:52:34;13.20;99.90
58517;DHT22;44308;50.810;0.284;2022-10-16T06:55:01;13.60;99.90
58517;DHT22;44308;50.810;0.284;2022-10-16T06:57:28;13.60;99.90
58517;DHT22;44308;50.810;0.284;2022-10-16T06:59:54;13.70;99.90
58517;DHT22;44308;50.810;0.284;2022-10-16T07:02:19;13.60;99.90
58517;DHT22;44308;50.810;0.284;2022-10-16T07:04:45;13.80;99.90
58517;DHT22;44308;50.810;0.284;2022-10-16T07:07:10;13.70;99.90
58517;DHT22;44308;50.810;0.284;2022-10-16T07:09:36;13.70;99.90
58517;DHT22;44308;50.810;0.284;2022-10-16T07:12:02;13.80;99.90
58517;DHT22;44308;50.810;0.284;2022-10-16T07:14:29;13.80;99.90
58517;DHT22;44308;50.810;0.284;2022-10-16T07:16:55;13.80;99.90
58517;DHT22;44308;50.810;0.284;2022-10-16T07:19:21;13.80;99.90
58517;DHT22;44308;50.810;0.284;2022-10-16T07:21:47;14.00;99.90
58517;DHT22;44308;50.810;0.284;2022-10-16T07:24:15;14.00;99.90
58517;DHT22;44308;50.810;0.284;2022-10-16T07:26:44;14.00;99.90
58517;DHT22;44308;50.810;0.284;2022-10-16T07:29:15;14.00;99.90
58517;DHT22;44308;50.810;0.284;2022-10-16T07:31:41;14.10;99.90
58517;DHT22;44308;50.810;0.284;2022-10-16T07:34:08;13.90;99.90
58517;DHT22;44308;50.810;0.284;2022-10-16T07:36:33;13.90;99.90
58517;DHT22;44308;50.810;0.284;2022-10-16T07:38:59;13.80;99.90
58517;DHT22;44308;50.810;0.284;2022-10-16T07:41:25;13.80;99.90
58517;DHT22;44308;50.810;0.284;2022-10-16T07:43:52;13.70;99.90
58517;DHT22;44308;50.810;0.284;2022-10-16T07:46:21;13.60;99.90
58517;DHT22;44308;50.810;0.284;2022-10-16T07:48:47;13.70;99.90
58517;DHT22;44308;50.810;0.284;2022-10-16T07:51:18;13.50;99.90
58517;DHT22;44308;50.810;0.284;2022-10-16T07:53:45;13.50;99.90
58517;DHT22;44308;50.810;0.284;2022-10-16T07:56:12;13.70;99.90
58517;DHT22;44308;50.810;0.284;2022-10-16T07:58:38;13.70;99.90
58517;DHT22;44308;50.810;0.284;2022-10-16T08:01:06;13.70;99.90
58517;DHT22;44308;50.810;0.284;2022-10-16T08:03:32;13.70;99.90
58517;DHT22;44308;50.810;0.284;2022-10-16T08:06:03;13.80;99.90
58517;DHT22;44308;50.810;0.284;2022-10-16T08:08:30;14.10;99.90
58517;DHT22;44308;50.810;0.284;2022-10-16T08:10:55;14.10;99.90
58517;DHT22;44308;50.810;0.284;2022-10-16T08:13:21;14.10;99.90
58517;DHT22;44308;50.810;0.284;2022-10-16T08:15:47;14.40;99.90
58517;DHT22;44308;50.810;0.284;2022-10-16T08:18:14;14.40;99.90
58517;DHT22;44308;50.810;0.284;2022-10-16T08:20:42;14.50;99.90
58517;DHT22;44308;50.810;0.284;2022-10-16T08:23:09;14.50;99.90
58517;DHT22;44308;50.810;0.284;2022-10-16T08:25:37;14.50;99.90
58517;DHT22;44308;50.810;0.284;2022-10-16T08:28:04;14.60;99.90
58517;DHT22;44308;50.810;0.284;2022-10-16T08:30:31;14.70;99.90
58517;DHT22;44308;50.810;0.284;2022-10-16T08:32:57;15.00;99.90
58517;DHT22;44308;50.810;0.284;2022-10-16T08:35:23;15.10;99.90
58517;DHT22;44308;50.810;0.284;2022-10-16T08:37:49;15.50;99.90
58517;DHT22;44308;50.810;0.284;2022-10-16T08:40:19;15.50;99.90
58517;DHT22;44308;50.810;0.284;2022-10-16T08:43:08;15.60;99.90
58517;DHT22;44308;50.810;0.284;2022-10-16T08:48:20;15.80;99.90
58517;DHT22;44308;50.810;0.284;2022-10-16T08:50:52;16.00;99.90
58517;DHT22;44308;50.810;0.284;2022-10-16T08:53:22;15.90;99.90
58517;DHT22;44308;50.810;0.284;2022-10-16T08:55:51;15.80;99.90
58517;DHT22;44308;50.810;0.284;2022-10-16T08:58:22;16.00;99.90
58517;DHT22;44308;50.810;0.284;2022-10-16T09:01:03;16.00;99.90
58517;DHT22;44308;50.810;0.284;2022-10-16T09:09:05;16.50;99.90
58517;DHT22;44308;50.810;0.284;2022-10-16T09:14:17;17.10;99.90
58517;DHT22;44308;50.810;0.284;2022-10-16T09:17:27;17.10;99.90
58517;DHT22;44308;50.810;0.284;2022-10-16T09:20:07;17.30;99.90
58517;DHT22;44308;50.810;0.284;2022-10-16T09:22:36;17.50;99.90
58517;DHT22;44308;50.810;0.284;2022-10-16T09:25:18;17.80;99.90
58517;DHT22;44308;50.810;0.284;2022-10-16T09:27:48;18.00;99.90
58517;DHT22;44308;50.810;0.284;2022-10-16T09:30:17;18.10;99.90
58517;DHT22;44308;50.810;0.284;2022-10-16T09:32:45;18.00;99.90
58517;DHT22;44308;50.810;0.284;2022-10-16T09:35:18;17.90;99.90
58517;DHT22;44308;50.810;0.284;2022-10-16T09:37:45;17.80;99.90
58517;DHT22;44308;50.810;0.284;2022-10-16T09:40:13;17.70;99.90
58517;DHT22;44308;50.810;0.284;2022-10-16T09:42:49;17.70;99.90
58517;DHT22;44308;50.810;0.284;2022-10-16T09:45:23;18.00;99.90
58517;DHT22;44308;50.810;0.284;2022-10-16T09:47:49;18.00;99.90
58517;DHT22;44308;50.810;0.284;2022-10-16T09:50:27;18.00;99.90
58517;DHT22;44308;50.810;0.284;2022-10-16T09:53:13;18.10;99.90
58517;DHT22;44308;50.810;0.284;2022-10-16T09:55:53;18.10;99.90
58517;DHT22;44308;50.810;0.284;2022-10-16T09:58:22;18.20;99.90
58517;DHT22;44308;50.810;0.284;2022-10-16T10:00:53;18.10;99.90
58517;DHT22;44308;50.810;0.284;2022-10-16T10:03:36;18.10;99.90
58517;DHT22;44308;50.810;0.284;2022-10-16T10:06:15;17.90;99.90
58517;DHT22;44308;50.810;0.284;2022-10-16T10:08:52;17.60;99.90
58517;DHT22;44308;50.810;0.284;2022-10-16T10:11:17;17.50;99.90
58517;DHT22;44308;50.810;0.284;2022-10-16T10:13:43;17.20;99.90
58517;DHT22;44308;50.810;0.284;2022-10-16T10:16:09;17.00;99.90
58517;DHT22;44308;50.810;0.284;2022-10-16T10:18:34;16.80;99.90
58517;DHT22;44308;50.810;0.284;2022-10-16T10:21:02;16.80;99.90
58517;DHT22;44308;50.810;0.284;2022-10-16T10:23:29;16.80;99.90
58517;DHT22;44308;50.810;0.284;2022-10-16T10:28:50;16.70;99.90
58517;DHT22;44308;50.810;0.284;2022-10-16T10:32:33;16.50;99.90
58517;DHT22;44308;50.810;0.284;2022-10-16T10:34:52;16.40;99.90
58517;DHT22;44308;50.810;0.284;2022-10-16T10:37:33;16.40;99.90
58517;DHT22;44308;50.810;0.284;2022-10-16T10:40:07;16.50;99.90
58517;DHT22;44308;50.810;0.284;2022-10-16T10:45:36;16.40;99.90
58517;DHT22;44308;50.810;0.284;2022-10-16T10:50:43;16.30;99.90
58517;DHT22;44308;50.810;0.284;2022-10-16T11:06:18;16.00;99.90
58517;DHT22;44308;50.810;0.284;2022-10-16T11:08:55;16.00;99.90
58517;DHT22;44308;50.810;0.284;2022-10-16T11:11:29;16.10;99.90
58517;DHT22;44308;50.810;0.284;2022-10-16T11:14:20;16.20;99.90
58517;DHT22;44308;50.810;0.284;2022-10-16T11:19:39;16.70;99.90
58517;DHT22;44308;50.810;0.284;2022-10-16T11:25:18;16.80;99.90
58517;DHT22;44308;50.810;0.284;2022-10-16T11:30:29;17.00;99.90
58517;DHT22;44308;50.810;0.284;2022-10-16T11:35:41;17.10;99.90
58517;DHT22;44308;50.810;0.284;2022-10-16T11:38:34;17.00;99.90
58517;DHT22;44308;50.810;0.284;2022-10-16T11:46:31;17.40;99.90
58517;DHT22;44308;50.810;0.284;2022-10-16T11:49:15;17.50;99.90
58517;DHT22;44308;50.810;0.284;2022-10-16T11:51:49;17.50;99.90
58517;DHT22;44308;50.810;0.284;2022-10-16T11:54:32;17.60;99.90
58517;DHT22;44308;50.810;0.284;2022-10-16T11:57:08;17.70;99.90
58517;DHT22;44308;50.810;0.284;2022-10-16T12:08:14;17.40;99.90
58517;DHT22;44308;50.810;0.284;2022-10-16T12:10:42;17.40;99.90
58517;DHT22;44308;50.810;0.284;2022-10-16T12:16:22;17.50;99.90
58517;DHT22;44308;50.810;0.284;2022-10-16T12:18:49;17.50;99.90
58517;DHT22;44308;50.810;0.284;2022-10-16T12:21:16;17.40;99.90
58517;DHT22;44308;50.810;0.284;2022-10-16T12:23:48;17.30;99.90
58517;DHT22;44308;50.810;0.284;2022-10-16T12:26:24;17.30;99.90
58517;DHT22;44308;50.810;0.284;2022-10-16T12:28:51;17.20;99.90
58517;DHT22;44308;50.810;0.284;2022-10-16T12:31:17;17.10;99.90
58517;DHT22;44308;50.810;0.284;2022-10-16T12:34:01;17.20;99.90
58517;DHT22;44308;50.810;0.284;2022-10-16T12:36:31;17.10;99.90
58517;DHT22;44308;50.810;0.284;2022-10-16T12:38:58;17.20;99.90
58517;DHT22;44308;50.810;0.284;2022-10-16T12:41:31;17.10;99.90
58517;DHT22;44308;50.810;0.284;2022-10-16T12:43:59;17.10;99.90
58517;DHT22;44308;50.810;0.284;2022-10-16T12:51:40;17.00;99.90
58517;DHT22;44308;50.810;0.284;2022-10-16T12:54:15;16.80;99.90
58517;DHT22;44308;50.810;0.284;2022-10-16T12:59:34;17.00;99.90
58517;DHT22;44308;50.810;0.284;2022-10-16T13:02:29;17.00;99.90
58517;DHT22;44308;50.810;0.284;2022-10-16T13:19:11;16.70;99.90
58517;DHT22;44308;50.810;0.284;2022-10-16T13:27:59;16.60;99.90
58517;DHT22;44308;50.810;0.284;2022-10-16T13:30:44;16.40;99.90
58517;DHT22;44308;50.810;0.284;2022-10-16T13:33:14;16.40;99.90
58517;DHT22;44308;50.810;0.284;2022-10-16T13:35:52;16.30;99.90
58517;DHT22;44308;50.810;0.284;2022-10-16T13:38:22;16.40;99.90
58517;DHT22;44308;50.810;0.284;2022-10-16T13:40:56;16.30;99.90
58517;DHT22;44308;50.810;0.284;2022-10-16T13:43:39;16.40;99.90
58517;DHT22;44308;50.810;0.284;2022-10-16T13:46:21;16.10;99.90
58517;DHT22;44308;50.810;0.284;2022-10-16T13:49:02;16.30;99.90
58517;DHT22;44308;50.810;0.284;2022-10-16T13:51:29;16.10;99.90
58517;DHT22;44308;50.810;0.284;2022-10-16T13:53:56;16.10;99.90
58517;DHT22;44308;50.810;0.284;2022-10-16T13:56:26;16.00;99.90
58517;DHT22;44308;50.810;0.284;2022-10-16T14:01:31;16.30;99.90
58517;DHT22;44308;50.810;0.284;2022-10-16T14:04:08;16.20;99.90
58517;DHT22;44308;50.810;0.284;2022-10-16T14:06:35;16.30;99.90
58517;DHT22;44308;50.810;0.284;2022-10-16T14:11:33;16.30;99.90
58517;DHT22;44308;50.810;0.284;2022-10-16T14:14:01;16.20;99.90
58517;DHT22;44308;50.810;0.284;2022-10-16T14:16:30;16.10;99.90
58517;DHT22;44308;50.810;0.284;2022-10-16T14:18:59;16.10;99.90
58517;DHT22;44308;50.810;0.284;2022-10-16T14:21:26;15.90;99.90
58517;DHT22;44308;50.810;0.284;2022-10-16T14:23:53;15.80;99.90
58517;DHT22;44308;50.810;0.284;2022-10-16T14:26:22;16.10;99.90
58517;DHT22;44308;50.810;0.284;2022-10-16T14:28:49;16.00;99.90
58517;DHT22;44308;50.810;0.284;2022-10-16T14:33:52;16.00;99.90
58517;DHT22;44308;50.810;0.284;2022-10-16T14:36:18;15.90;99.90
58517;DHT22;44308;50.810;0.284;2022-10-16T14:39:06;15.90;99.90
58517;DHT22;44308;50.810;0.284;2022-10-16T14:41:48;16.10;99.90
58517;DHT22;44308;50.810;0.284;2022-10-16T14:44:16;16.00;99.90
58517;DHT22;44308;50.810;0.284;2022-10-16T14:46:43;16.00;99.90
58517;DHT22;44308;50.810;0.284;2022-10-16T14:51:36;15.90;99.90
58517;DHT22;44308;50.810;0.284;2022-10-16T14:54:02;15.90;99.90
58517;DHT22;44308;50.810;0.284;2022-10-16T14:56:52;16.00;99.90
58517;DHT22;44308;50.810;0.284;2022-10-16T14:59:33;16.00;99.90
58517;DHT22;44308;50.810;0.284;2022-10-16T15:04:41;16.00;99.90
58517;DHT22;44308;50.810;0.284;2022-10-16T15:07:10;16.00;99.90
58517;DHT22;44308;50.810;0.284;2022-10-16T15:09:36;15.80;99.90
58517;DHT22;44308;50.810;0.284;2022-10-16T15:12:01;16.00;99.90
58517;DHT22;44308;50.810;0.284;2022-10-16T15:14:46;16.00;99.90
58517;DHT22;44308;50.810;0.284;2022-10-16T15:17:12;16.00;99.90
58517;DHT22;44308;50.810;0.284;2022-10-16T15:19:38;15.90;99.90
58517;DHT22;44308;50.810;0.284;2022-10-16T15:22:04;15.90;99.90
58517;DHT22;44308;50.810;0.284;2022-10-16T15:24:31;15.90;99.90
58517;DHT22;44308;50.810;0.284;2022-10-16T15:26:57;15.90;99.90
58517;DHT22;44308;50.810;0.284;2022-10-16T15:29:23;15.90;99.90
58517;DHT22;44308;50.810;0.284;2022-10-16T15:31:48;16.10;99.90
58517;DHT22;44308;50.810;0.284;2022-10-16T15:34:14;15.90;99.90
58517;DHT22;44308;50.810;0.284;2022-10-16T15:36:40;15.80;99.90
58517;DHT22;44308;50.810;0.284;2022-10-16T15:39:13;15.70;99.90
58517;DHT22;44308;50.810;0.284;2022-10-16T15:41:40;16.00;99.90
58517;DHT22;44308;50.810;0.284;2022-10-16T15:44:07;15.90;99.90
58517;DHT22;44308;50.810;0.284;2022-10-16T15:46:33;15.80;99.90
58517;DHT22;44308;50.810;0.284;2022-10-16T15:49:00;15.80;99.90
58517;DHT22;44308;50.810;0.284;2022-10-16T15:51:27;15.80;99.90
58517;DHT22;44308;50.810;0.284;2022-10-16T15:53:58;15.80;99.90
58517;DHT22;44308;50.810;0.284;2022-10-16T15:56:26;15.60;99.90
58517;DHT22;44308;50.810;0.284;2022-10-16T15:58:54;15.60;99.90
58517;DHT22;44308;50.810;0.284;2022-10-16T16:01:20;15.60;99.90
58517;DHT22;44308;50.810;0.284;2022-10-16T16:03:47;15.90;99.90
58517;DHT22;44308;50.810;0.284;2022-10-16T16:06:15;15.60;99.90
58517;DHT22;44308;50.810;0.284;2022-10-16T16:08:40;15.70;99.90
58517;DHT22;44308;50.810;0.284;2022-10-16T16:11:12;15.80;99.90
58517;DHT22;44308;50.810;0.284;2022-10-16T16:13:39;15.90;99.90
58517;DHT22;44308;50.810;0.284;2022-10-16T16:16:08;15.80;99.90
58517;DHT22;44308;50.810;0.284;2022-10-16T16:18:34;15.90;99.90
58517;DHT22;44308;50.810;0.284;2022-10-16T16:21:00;15.80;99.90
58517;DHT22;44308;50.810;0.284;2022-10-16T16:23:26;15.80;99.90
58517;DHT22;44308;50.810;0.284;2022-10-16T16:29:33;15.90;99.90
58517;DHT22;44308;50.810;0.284;2022-10-16T16:32:02;15.60;99.90
58517;DHT22;44308;50.810;0.284;2022-10-16T16:34:29;15.80;99.90
58517;DHT22;44308;50.810;0.284;2022-10-16T16:36:58;15.70;99.90
58517;DHT22;44308;50.810;0.284;2022-10-16T16:39:24;15.80;99.90
58517;DHT22;44308;50.810;0.284;2022-10-16T16:41:49;15.50;99.90
58517;DHT22;44308;50.810;0.284;2022-10-16T16:44:16;15.70;99.90
58517;DHT22;44308;50.810;0.284;2022-10-16T16:46:43;15.70;99.90
58517;DHT22;44308;50.810;0.284;2022-10-16T16:49:11;15.40;99.90
58517;DHT22;44308;50.810;0.284;2022-10-16T16:51:37;15.50;99.90
58517;DHT22;44308;50.810;0.284;2022-10-16T16:54:04;15.40;99.90
58517;DHT22;44308;50.810;0.284;2022-10-16T16:56:30;15.60;99.90
58517;DHT22;44308;50.810;0.284;2022-10-16T16:58:56;15.60;99.90
58517;DHT22;44308;50.810;0.284;2022-10-16T17:01:24;15.60;99.90
58517;DHT22;44308;50.810;0.284;2022-10-16T17:03:53;15.50;99.90
58517;DHT22;44308;50.810;0.284;2022-10-16T17:09:22;15.60;99.90
58517;DHT22;44308;50.810;0.284;2022-10-16T17:11:49;15.50;99.90
58517;DHT22;44308;50.810;0.284;2022-10-16T17:14:15;15.50;99.90
58517;DHT22;44308;50.810;0.284;2022-10-16T17:16:41;15.60;99.90
58517;DHT22;44308;50.810;0.284;2022-10-16T17:19:15;15.40;99.90
58517;DHT22;44308;50.810;0.284;2022-10-16T17:21:41;15.60;99.90
58517;DHT22;44308;50.810;0.284;2022-10-16T17:24:08;15.40;99.90
58517;DHT22;44308;50.810;0.284;2022-10-16T17:26:38;15.50;99.90
58517;DHT22;44308;50.810;0.284;2022-10-16T17:29:06;15.50;99.90
58517;DHT22;44308;50.810;0.284;2022-10-16T17:31:34;15.60;99.90
58517;DHT22;44308;50.810;0.284;2022-10-16T17:34:02;15.50;99.90
58517;DHT22;44308;50.810;0.284;2022-10-16T17:36:34;15.50;99.90
58517;DHT22;44308;50.810;0.284;2022-10-16T17:39:02;15.70;99.90
58517;DHT22;44308;50.810;0.284;2022-10-16T17:41:29;15.70;99.90
58517;DHT22;44308;50.810;0.284;2022-10-16T17:43:55;15.60;99.90
58517;DHT22;44308;50.810;0.284;2022-10-16T17:49:26;15.90;99.90
58517;DHT22;44308;50.810;0.284;2022-10-16T17:51:52;15.90;99.90
58517;DHT22;44308;50.810;0.284;2022-10-16T17:54:18;15.70;99.90
58517;DHT22;44308;50.810;0.284;2022-10-16T17:56:44;15.90;99.90
58517;DHT22;44308;50.810;0.284;2022-10-16T17:59:12;15.90;99.90